Terminal Aerodrome Forecast
Issued by NWS Sterling, VA

Current Version | Previous Version | Graphics & Text | Print | Product List | Glossary On
Versions: 1 2 3 4 5 6 7 8 9 10 11 12 13 14 15 16 17 18 19 20 21 22 23 24
000
FTUS41 KLWX 200800 AAA
TAFDCA
TAF AMD
KDCA 200845Z 2009/2106 02005KT P6SM SCT020 OVC090
     FM200930 04005KT P6SM BKN018 OVC090
     FM201400 10006KT P6SM OVC070=

USA.gov is the U.S. government's official web portal to all federal, state and local government web resources and services.